Time;durP1;ratioP1;P1;durP2;ratioP2;P2;SDS_P1;SDS_P2;PMS_P1;PMS_P2;Temp;Humidity;BMP_temperature;BMP_pressure;BME280_temperature;BME280_humidity;BME280_pressure;Samples;Min_cycle;Max_cycle;Signal;HPM_P1;HPM_P2
2021/09/08 00:02:14;;;;;;;20.10;8.20;;;;;;;14.37;56.73;99766.52;112040;1200;100844;-83
2021/09/08 00:04:44;;;;;;;20.60;8.50;;;;;;;14.36;56.82;99767.67;111936;1208;112622;-83
2021/09/08 00:07:18;;;;;;;21.20;8.10;;;;;;;14.35;56.72;99770.11;111851;1200;99751;-83
2021/09/08 00:09:46;;;;;;;22.10;8.70;;;;;;;14.33;56.88;99773.43;112056;1200;107490;-83
2021/09/08 00:12:14;;;;;;;20.30;8.20;;;;;;;14.30;56.94;99772.80;112107;1208;99014;-84
2021/09/08 00:14:46;;;;;;;19.20;7.40;;;;;;;14.27;56.92;99775.16;111942;1202;99073;-85
2021/09/08 00:17:19;;;;;;;20.90;8.60;;;;;;;14.24;57.02;99776.67;113198;1200;111092;-80
2021/09/08 00:19:47;;;;;;;19.60;8.00;;;;;;;14.21;57.03;99782.55;113687;1200;96548;-84
2021/09/08 00:22:15;;;;;;;21.30;8.10;;;;;;;14.19;56.98;99777.74;113731;1202;106126;-84
2021/09/08 00:24:50;;;;;;;19.30;7.90;;;;;;;14.17;57.03;99778.08;112044;1200;99042;-86
2021/09/08 00:27:22;;;;;;;19.00;7.10;;;;;;;14.16;57.12;99781.16;111914;1199;98958;-85
2021/09/08 00:29:50;;;;;;;19.80;8.10;;;;;;;14.13;57.03;99780.15;111915;1208;111155;-84
2021/09/08 00:32:20;;;;;;;21.50;8.40;;;;;;;14.11;57.14;99778.52;111897;1207;99023;-84
2021/09/08 00:34:48;;;;;;;22.40;8.10;;;;;;;14.09;57.19;99779.36;111917;1208;107293;-82
2021/09/08 00:37:16;;;;;;;20.60;8.10;;;;;;;14.05;57.11;99780.18;111958;1202;98980;-83
2021/09/08 00:39:44;;;;;;;22.00;8.30;;;;;;;14.00;57.18;99781.64;111943;1200;98940;-83
2021/09/08 00:42:17;;;;;;;20.80;8.80;;;;;;;13.96;57.22;99777.31;111884;1209;112501;-82
2021/09/08 00:44:48;;;;;;;19.30;8.40;;;;;;;13.92;57.33;99778.88;111954;1208;99526;-81
2021/09/08 00:47:20;;;;;;;20.20;7.60;;;;;;;13.88;57.41;99784.66;111917;1200;107538;-82
2021/09/08 00:49:48;;;;;;;18.80;7.40;;;;;;;13.85;57.43;99783.13;111940;1201;98933;-83
2021/09/08 00:52:18;;;;;;;19.30;8.10;;;;;;;13.82;57.46;99782.26;111868;1209;99005;-82
2021/09/08 00:54:51;;;;;;;18.80;7.50;;;;;;;13.79;57.46;99783.02;111975;1208;111516;-81
2021/09/08 00:57:25;;;;;;;19.00;7.80;;;;;;;13.75;57.51;99782.95;111937;1208;99382;-81
2021/09/08 00:59:53;;;;;;;16.30;7.30;;;;;;;13.70;57.44;99785.30;111938;1208;107386;-81
2021/09/08 01:02:20;;;;;;;19.10;7.90;;;;;;;13.64;57.52;99783.81;111973;1208;98980;-80
2021/09/08 01:04:52;;;;;;;19.10;8.00;;;;;;;13.59;57.65;99787.86;111928;1203;98996;-82
2021/09/08 01:07:27;;;;;;;19.50;8.20;;;;;;;13.57;57.65;99785.89;111875;1208;113204;-82
2021/09/08 01:09:55;;;;;;;19.20;7.70;;;;;;;13.56;57.66;99785.60;111927;1208;99722;-82
2021/09/08 01:12:23;;;;;;;18.40;7.20;;;;;;;13.54;57.79;99785.23;111954;1208;107464;-82
2021/09/08 01:14:55;;;;;;;20.30;8.10;;;;;;;13.51;57.80;99788.46;111948;1207;96409;-81
2021/09/08 01:17:22;;;;;;;19.20;7.80;;;;;;;13.48;57.80;99790.48;111925;1207;98943;-81
2021/09/08 01:19:50;;;;;;;19.10;7.80;;;;;;;13.43;57.84;99789.41;111939;1207;112503;-80
2021/09/08 01:22:18;;;;;;;20.40;7.90;;;;;;;13.41;57.91;99790.06;111963;1208;98990;-82
2021/09/08 01:24:52;;;;;;;18.30;8.20;;;;;;;13.39;57.89;99790.17;111906;1208;107446;-84
2021/09/08 01:27:20;;;;;;;21.50;8.10;;;;;;;13.38;58.06;99793.47;111966;1202;98989;-84
2021/09/08 01:29:47;;;;;;;17.80;7.40;;;;;;;13.38;58.15;99790.78;112017;1208;98229;-84
2021/09/08 01:32:19;;;;;;;17.70;7.20;;;;;;;13.38;58.03;99788.48;111896;1202;112416;-84
2021/09/08 01:34:55;;;;;;;18.80;8.70;;;;;;;13.37;58.09;99783.21;111935;1200;99045;-83
2021/09/08 01:37:22;;;;;;;19.60;7.60;;;;;;;13.35;58.21;99788.30;111924;1200;106121;-84
2021/09/08 01:39:50;;;;;;;19.30;7.70;;;;;;;13.35;58.16;99787.63;111997;1201;99037;-83
2021/09/08 01:42:19;;;;;;;19.30;7.90;;;;;;;13.36;58.17;99784.66;111973;1202;99018;-84
2021/09/08 01:44:47;;;;;;;18.90;7.60;;;;;;;13.37;58.36;99783.58;111974;1208;112558;-85
2021/09/08 01:47:15;;;;;;;19.80;7.60;;;;;;;13.38;58.34;99784.36;111962;1208;99040;-82
2021/09/08 01:49:43;;;;;;;19.00;7.30;;;;;;;13.39;58.37;99784.84;111983;1208;107189;-83
2021/09/08 01:52:15;;;;;;;21.70;8.00;;;;;;;13.38;58.40;99784.52;111937;1202;98982;-81
2021/09/08 01:54:43;;;;;;;16.90;7.30;;;;;;;13.38;58.52;99786.47;111956;1200;98990;-79
2021/09/08 01:57:15;;;;;;;18.50;7.70;;;;;;;13.37;58.53;99787.29;111948;1208;112534;-80
2021/09/08 01:59:43;;;;;;;18.20;7.50;;;;;;;13.36;58.53;99783.84;111937;1208;98932;-86
2021/09/08 02:02:15;;;;;;;18.30;7.00;;;;;;;13.32;58.59;99783.71;112032;1207;107510;-88
2021/09/08 02:04:44;;;;;;;20.00;8.10;;;;;;;13.31;58.59;99785.08;111964;1200;99107;-87
2021/09/08 02:07:15;;;;;;;18.00;7.50;;;;;;;13.29;58.62;99780.25;111958;1200;96426;-87
2021/09/08 02:09:43;;;;;;;17.40;7.30;;;;;;;13.27;58.62;99780.86;111969;1207;112317;-86
2021/09/08 02:12:10;;;;;;;16.90;7.20;;;;;;;13.25;58.68;99784.05;111968;1207;98905;-87
2021/09/08 02:14:38;;;;;;;18.20;7.20;;;;;;;13.23;58.71;99784.79;111959;1208;106199;-88
2021/09/08 02:17:07;;;;;;;17.30;7.30;;;;;;;13.20;58.80;99785.52;111948;1202;99046;-87
2021/09/08 02:19:35;;;;;;;19.50;7.20;;;;;;;13.18;58.77;99787.77;111937;1202;98933;-87
2021/09/08 02:22:03;;;;;;;19.20;7.20;;;;;;;13.17;58.88;99783.79;111985;1208;112537;-88
2021/09/08 02:24:31;;;;;;;16.00;7.00;;;;;;;13.14;58.83;99784.36;111944;1202;99069;-88
2021/09/08 02:26:59;;;;;;;18.10;7.30;;;;;;;13.12;58.84;99784.48;111983;1207;107465;-88
2021/09/08 02:29:31;;;;;;;17.00;7.10;;;;;;;13.11;58.98;99787.22;111969;1207;99021;-87
2021/09/08 02:31:58;;;;;;;20.90;7.60;;;;;;;13.09;58.99;99791.45;111947;1208;99024;-88
2021/09/08 02:34:26;;;;;;;17.80;7.40;;;;;;;13.07;58.98;99787.66;112015;1200;112480;-87
2021/09/08 02:36:55;;;;;;;17.00;6.70;;;;;;;13.04;59.01;99787.16;111999;1208;99031;-87
2021/09/08 02:39:23;;;;;;;17.20;7.00;;;;;;;13.02;58.98;99788.25;111887;1203;107303;-87
2021/09/08 02:41:51;;;;;;;19.10;8.00;;;;;;;12.99;59.04;99783.43;111886;1208;99000;-87
2021/09/08 02:44:19;;;;;;;20.00;7.40;;;;;;;12.97;59.12;99779.30;112003;1199;99039;-86
2021/09/08 02:46:47;;;;;;;17.50;7.40;;;;;;;12.95;59.13;99779.63;111987;1200;112530;-88
2021/09/08 02:49:15;;;;;;;17.50;6.90;;;;;;;12.94;59.22;99781.31;111975;1207;98892;-86
2021/09/08 02:51:43;;;;;;;18.00;7.60;;;;;;;12.93;59.17;99782.42;111961;1199;107536;-86
2021/09/08 02:54:11;;;;;;;18.30;7.80;;;;;;;12.91;59.31;99782.39;111980;1199;98940;-82
2021/09/08 02:56:38;;;;;;;17.40;7.50;;;;;;;12.90;59.29;99782.25;112058;1207;99020;-84
2021/09/08 02:59:10;;;;;;;17.00;7.30;;;;;;;12.89;59.33;99781.98;111988;1207;112516;-87
2021/09/08 03:01:38;;;;;;;18.00;7.40;;;;;;;12.88;59.43;99778.88;112021;1200;99030;-87
2021/09/08 03:04:06;;;;;;;19.50;7.20;;;;;;;12.86;59.36;99785.76;111936;1207;107401;-82
2021/09/08 03:06:34;;;;;;;17.30;6.80;;;;;;;12.84;59.38;99785.19;111916;1208;98216;-83
2021/09/08 03:09:02;;;;;;;19.70;7.50;;;;;;;12.82;59.27;99780.74;112005;1199;99032;-83
2021/09/08 03:11:31;;;;;;;15.60;6.80;;;;;;;12.80;59.21;99783.17;112047;1199;112117;-84
2021/09/08 03:13:59;;;;;;;18.50;7.20;;;;;;;12.78;59.29;99786.66;111989;1207;96432;-84
2021/09/08 03:16:33;;;;;;;18.10;7.50;;;;;;;12.76;59.46;99786.67;111922;1200;107417;-83
2021/09/08 03:19:01;;;;;;;17.50;7.00;;;;;;;12.75;59.49;99785.62;111869;1202;98995;-83
2021/09/08 03:21:31;;;;;;;19.50;7.50;;;;;;;12.76;59.51;99787.17;112006;1200;96919;-81
2021/09/08 03:23:59;;;;;;;17.80;7.70;;;;;;;12.76;59.59;99789.70;111916;1208;111600;-83
2021/09/08 03:26:31;;;;;;;18.10;6.80;;;;;;;12.76;59.58;99789.48;111945;1208;99060;-82
2021/09/08 03:28:59;;;;;;;15.70;6.70;;;;;;;12.76;59.57;99789.48;111929;1208;107389;-85
2021/09/08 03:31:30;;;;;;;15.40;6.60;;;;;;;12.77;59.68;99785.16;111975;1200;98931;-81
2021/09/08 03:33:58;;;;;;;15.90;6.40;;;;;;;12.78;59.64;99787.36;111960;1202;98942;-82
2021/09/08 03:36:25;;;;;;;17.60;7.00;;;;;;;12.79;59.67;99784.84;111984;1208;113076;-83
2021/09/08 03:38:53;;;;;;;18.70;7.10;;;;;;;12.79;59.85;99782.15;111977;1208;99025;-83
2021/09/08 03:41:25;;;;;;;19.50;6.90;;;;;;;12.79;59.76;99788.06;111883;1208;107547;-81
2021/09/08 03:43:57;;;;;;;17.30;7.00;;;;;;;12.78;59.78;99790.09;111835;1202;99005;-82
2021/09/08 03:46:24;;;;;;;17.00;6.40;;;;;;;12.78;59.90;99791.64;111932;1207;98971;-83
2021/09/08 03:48:52;;;;;;;18.00;6.50;;;;;;;12.79;59.96;99791.44;112011;1200;111943;-82
2021/09/08 03:51:20;;;;;;;16.00;6.80;;;;;;;12.78;60.05;99792.54;111938;1207;99001;-81
2021/09/08 03:53:48;;;;;;;16.70;7.00;;;;;;;12.77;59.86;99795.48;111934;1207;106484;-83
2021/09/08 03:56:16;;;;;;;16.40;6.50;;;;;;;12.76;60.00;99791.12;111903;1207;99037;-85
2021/09/08 03:58:43;;;;;;;16.40;6.80;;;;;;;12.74;60.11;99791.96;112029;1199;98999;-82
2021/09/08 04:01:11;;;;;;;20.20;6.90;;;;;;;12.73;60.10;99793.23;111947;1202;112426;-82
2021/09/08 04:03:40;;;;;;;19.40;7.20;;;;;;;12.73;60.10;99795.56;112010;1208;98959;-84
2021/09/08 04:06:10;;;;;;;16.90;6.90;;;;;;;12.71;59.98;99800.31;112007;1207;107403;-86
2021/09/08 04:08:37;;;;;;;16.10;6.50;;;;;;;12.70;60.02;99798.25;111924;1207;98956;-83
2021/09/08 04:11:05;;;;;;;19.10;7.20;;;;;;;12.67;60.11;99799.02;112026;1207;98940;-82
2021/09/08 04:13:39;;;;;;;22.00;7.40;;;;;;;12.65;60.20;99800.93;112024;1199;112544;-84
2021/09/08 04:16:07;;;;;;;17.30;6.80;;;;;;;12.64;60.27;99799.58;111998;1206;96612;-81
2021/09/08 04:18:34;;;;;;;17.00;6.70;;;;;;;12.63;60.33;99801.42;111938;1207;107451;-82
2021/09/08 04:21:10;;;;;;;17.20;6.40;;;;;;;12.60;60.39;99802.69;111961;1208;99607;-85
2021/09/08 04:23:38;;;;;;;19.50;7.50;;;;;;;12.61;60.50;99801.59;111898;1199;99005;-83
2021/09/08 04:26:06;;;;;;;17.00;6.70;;;;;;;12.61;60.31;99806.39;111950;1207;111529;-78
2021/09/08 04:28:34;;;;;;;17.20;7.00;;;;;;;12.61;60.47;99809.73;112044;1207;96381;-82
2021/09/08 04:31:06;;;;;;;18.50;6.80;;;;;;;12.62;60.56;99809.84;111941;1207;107590;-82
2021/09/08 04:33:34;;;;;;;18.00;7.10;;;;;;;12.64;60.45;99811.34;111959;1207;96526;-76
2021/09/08 04:36:06;;;;;;;21.80;7.40;;;;;;;12.64;60.43;99807.08;111962;1200;98874;-85
2021/09/08 04:38:38;;;;;;;16.40;6.70;;;;;;;12.63;60.55;99806.54;111970;1199;112494;-80
2021/09/08 04:41:06;;;;;;;19.60;7.80;;;;;;;12.64;60.60;99809.86;111977;1207;99063;-86
2021/09/08 04:43:34;;;;;;;19.10;6.90;;;;;;;12.67;60.54;99812.20;112012;1200;107485;-84
2021/09/08 04:46:02;;;;;;;19.90;7.70;;;;;;;12.69;60.77;99815.98;111985;1200;99035;-83
2021/09/08 04:48:34;;;;;;;19.20;6.90;;;;;;;12.72;60.61;99814.89;111970;1199;97672;-83
2021/09/08 04:51:06;;;;;;;17.80;7.00;;;;;;;12.74;60.66;99815.61;111970;1207;112010;-83
2021/09/08 04:53:34;;;;;;;17.20;6.60;;;;;;;12.77;60.79;99815.79;112002;1199;99420;-83
2021/09/08 04:56:10;;;;;;;18.10;7.70;;;;;;;12.80;60.77;99816.94;111979;1200;107999;-80
2021/09/08 04:58:37;;;;;;;16.10;6.80;;;;;;;12.84;60.78;99819.25;111937;1199;99078;-82
2021/09/08 05:01:05;;;;;;;17.60;7.40;;;;;;;12.87;60.92;99822.73;111976;1200;98960;-81
2021/09/08 05:03:39;;;;;;;18.40;7.20;;;;;;;12.90;60.90;99825.39;111938;1200;112668;-81
2021/09/08 05:06:08;;;;;;;18.20;7.60;;;;;;;12.92;60.94;99826.29;111954;1200;99017;-80
2021/09/08 05:08:36;;;;;;;17.50;7.70;;;;;;;12.95;60.95;99830.85;111930;1207;109460;-81
2021/09/08 05:11:04;;;;;;;19.40;7.90;;;;;;;12.98;60.98;99832.45;111924;1207;99649;-82
2021/09/08 05:13:36;;;;;;;21.00;7.20;;;;;;;13.00;61.07;99833.38;111926;1200;98909;-84
2021/09/08 05:16:08;;;;;;;17.20;6.80;;;;;;;13.03;60.95;99828.52;111940;1207;113494;-84
2021/09/08 05:18:36;;;;;;;19.40;7.60;;;;;;;13.07;61.00;99828.78;111979;1200;99129;-82
2021/09/08 05:21:09;;;;;;;17.20;7.00;;;;;;;13.11;61.09;99830.51;111860;1209;107379;-80
2021/09/08 05:23:38;;;;;;;18.50;6.70;;;;;;;13.16;61.13;99827.86;111949;1207;96451;-83
2021/09/08 05:26:12;;;;;;;17.20;6.90;;;;;;;13.20;61.08;99825.90;111922;1200;98237;-86
2021/09/08 05:28:42;;;;;;;17.60;7.00;;;;;;;13.24;61.19;99832.55;112029;1200;112502;-82
2021/09/08 05:31:11;;;;;;;19.10;6.90;;;;;;;13.29;61.13;99833.65;112049;1200;99704;-83
2021/09/08 05:33:39;;;;;;;18.50;7.10;;;;;;;13.34;61.16;99838.65;112012;1207;107008;-81
2021/09/08 05:36:08;;;;;;;15.90;6.70;;;;;;;13.39;61.13;99838.62;111930;1199;98964;-80
2021/09/08 05:38:36;;;;;;;18.00;7.00;;;;;;;13.45;61.23;99839.48;111962;1200;96488;-82
2021/09/08 05:41:05;;;;;;;17.80;7.20;;;;;;;13.51;61.26;99844.19;111929;1200;112784;-82
2021/09/08 05:43:33;;;;;;;19.00;6.60;;;;;;;13.57;61.22;99845.20;112050;1207;98942;-81
2021/09/08 05:46:05;;;;;;;20.60;7.50;;;;;;;13.63;61.28;99845.69;112160;1207;107299;-82
2021/09/08 05:48:33;;;;;;;14.50;6.30;;;;;;;13.69;61.31;99845.02;111857;1199;99031;-81
2021/09/08 05:51:01;;;;;;;16.40;6.70;;;;;;;13.75;61.35;99846.04;111903;1200;96319;-80
2021/09/08 05:53:29;;;;;;;14.30;6.30;;;;;;;13.82;61.30;99847.52;111874;1207;112532;-84
2021/09/08 05:55:57;;;;;;;20.50;6.90;;;;;;;13.88;61.30;99848.89;112063;1200;99063;-82
2021/09/08 05:58:27;;;;;;;15.20;6.10;;;;;;;13.93;61.32;99846.86;111864;1207;107064;-82
2021/09/08 06:00:55;;;;;;;16.60;6.80;;;;;;;14.00;61.33;99846.56;111864;1207;98934;-82
2021/09/08 06:03:28;;;;;;;16.20;6.30;;;;;;;14.07;61.39;99848.89;111977;1207;98874;-81
2021/09/08 06:05:56;;;;;;;18.40;7.10;;;;;;;14.13;61.40;99848.60;111959;1200;112542;-78
2021/09/08 06:08:28;;;;;;;17.00;6.70;;;;;;;14.21;61.47;99847.34;111929;1207;96925;-83
2021/09/08 06:10:57;;;;;;;17.00;6.80;;;;;;;14.27;61.29;99846.50;111946;1207;107596;-83
2021/09/08 06:13:25;;;;;;;19.30;6.80;;;;;;;14.32;61.37;99844.67;111999;1207;99632;-80
2021/09/08 06:15:55;;;;;;;19.60;7.10;;;;;;;14.38;61.36;99846.17;111921;1200;99423;-82
2021/09/08 06:18:23;;;;;;;17.20;6.50;;;;;;;14.45;61.33;99841.40;111860;1201;112179;-82
2021/09/08 06:20:51;;;;;;;16.80;6.30;;;;;;;14.51;61.26;99842.70;111927;1207;98956;-83
2021/09/08 06:23:21;;;;;;;16.30;6.20;;;;;;;14.57;61.36;99845.09;111898;1207;106439;-82
2021/09/08 06:25:49;;;;;;;17.90;6.60;;;;;;;14.64;61.34;99841.42;111884;1207;99039;-85
2021/09/08 06:28:20;;;;;;;15.60;6.20;;;;;;;14.71;61.36;99838.18;111988;1200;98977;-83
2021/09/08 06:30:50;;;;;;;16.40;7.10;;;;;;;14.77;61.35;99839.14;111977;1207;111869;-81
2021/09/08 06:33:20;;;;;;;16.70;6.70;;;;;;;14.83;61.42;99839.91;111949;1207;99104;-82
2021/09/08 06:35:50;;;;;;;18.10;7.00;;;;;;;14.90;61.45;99842.41;112085;1207;107525;-80
2021/09/08 06:38:19;;;;;;;17.80;6.50;;;;;;;14.97;61.36;99844.23;112327;1200;98966;-79
2021/09/08 06:40:47;;;;;;;19.00;7.40;;;;;;;15.04;61.37;99845.27;112105;1200;98951;-84
2021/09/08 06:43:17;;;;;;;16.30;6.40;;;;;;;15.10;61.43;99841.22;111950;1207;112565;-84
2021/09/08 06:45:45;;;;;;;19.20;7.60;;;;;;;15.17;61.42;99845.81;112012;1207;98967;-84
2021/09/08 06:48:13;;;;;;;17.60;7.10;;;;;;;15.26;61.45;99846.10;111975;1207;107563;-84
2021/09/08 06:50:43;;;;;;;16.10;7.20;;;;;;;15.34;61.45;99843.81;111939;1207;98974;-84
2021/09/08 06:53:12;;;;;;;15.40;6.20;;;;;;;15.43;61.48;99846.83;112078;1200;100139;-85
2021/09/08 06:55:41;;;;;;;16.60;7.00;;;;;;;15.52;61.42;99847.89;112027;1200;112541;-84
2021/09/08 06:58:09;;;;;;;18.20;6.80;;;;;;;15.59;61.54;99845.90;111997;1207;98927;-84
2021/09/08 07:00:37;;;;;;;16.90;6.80;;;;;;;15.67;61.41;99849.73;111889;1207;107462;-85
2021/09/08 07:03:08;;;;;;;15.70;6.40;;;;;;;15.74;61.40;99845.23;111979;1207;99138;-84
2021/09/08 07:05:36;;;;;;;15.50;6.60;;;;;;;15.83;61.41;99848.42;112007;1200;98959;-84
2021/09/08 07:08:05;;;;;;;16.90;7.30;;;;;;;15.93;61.36;99845.50;111946;1207;112242;-81
2021/09/08 07:10:36;;;;;;;16.30;6.70;;;;;;;16.04;61.44;99850.88;111956;1207;99035;-81
2021/09/08 07:13:09;;;;;;;15.10;6.70;;;;;;;16.15;61.50;99852.80;111929;1207;107454;-83
2021/09/08 07:15:40;;;;;;;17.80;6.30;;;;;;;16.28;61.39;99849.24;112000;1208;99002;-83
2021/09/08 07:18:08;;;;;;;18.10;6.50;;;;;;;16.41;61.55;99848.13;111989;1200;98902;-87
2021/09/08 07:20:37;;;;;;;15.00;6.40;;;;;;;16.53;61.36;99847.27;112062;1207;112580;-87
2021/09/08 07:23:05;;;;;;;16.80;6.50;;;;;;;16.81;61.14;99851.20;112102;1203;99091;-86
2021/09/08 07:25:33;;;;;;;16.90;6.70;;;;;;;18.09;59.79;99845.11;112007;1207;107463;-88
2021/09/08 07:28:03;;;;;;;15.90;6.20;;;;;;;19.53;58.89;99844.17;112000;1206;99044;-85
2021/09/08 07:30:32;;;;;;;16.40;6.00;;;;;;;20.83;58.41;99839.48;112045;1200;98924;-86
2021/09/08 07:33:02;;;;;;;16.90;6.70;;;;;;;22.01;58.24;99839.00;112018;1207;112560;-84
2021/09/08 07:35:30;;;;;;;13.40;6.20;;;;;;;23.07;58.42;99838.07;112027;1207;99043;-83
2021/09/08 07:38:00;;;;;;;18.40;6.50;;;;;;;24.02;58.11;99836.21;112047;1207;107171;-85
2021/09/08 07:40:32;;;;;;;14.40;6.40;;;;;;;24.82;57.75;99832.85;112045;1207;97070;-84
2021/09/08 07:43:02;;;;;;;13.50;6.20;;;;;;;25.68;57.43;99831.87;112042;1207;96496;-83
2021/09/08 07:45:33;;;;;;;15.80;6.30;;;;;;;26.48;57.57;99837.84;112073;1207;113030;-85
2021/09/08 07:48:05;;;;;;;14.30;6.20;;;;;;;27.14;57.16;99836.30;112025;1209;99454;-82
2021/09/08 07:50:33;;;;;;;15.80;6.80;;;;;;;27.66;56.59;99835.17;112096;1207;107500;-82
2021/09/08 07:53:04;;;;;;;16.90;6.50;;;;;;;28.03;56.11;99838.13;112079;1203;97118;-81
2021/09/08 07:55:33;;;;;;;14.10;6.50;;;;;;;28.57;56.30;99839.20;111984;1200;98992;-82
2021/09/08 07:58:04;;;;;;;19.10;6.40;;;;;;;29.14;56.13;99839.49;111947;1209;112466;-82
2021/09/08 08:00:36;;;;;;;11.90;5.50;;;;;;;29.64;55.39;99838.15;112001;1207;96785;-83
2021/09/08 08:03:06;;;;;;;14.30;6.10;;;;;;;30.13;54.91;99838.69;112020;1200;107087;-83
2021/09/08 08:05:36;;;;;;;13.60;6.80;;;;;;;30.53;54.38;99835.26;111983;1201;99027;-82
2021/09/08 08:08:04;;;;;;;12.20;6.20;;;;;;;30.77;54.16;99832.48;112026;1201;99047;-83
2021/09/08 08:10:32;;;;;;;12.70;5.90;;;;;;;30.99;53.54;99832.09;112026;1207;104097;-82
2021/09/08 08:13:01;;;;;;;16.30;6.70;;;;;;;31.20;53.18;99836.30;112004;1200;99660;-82
2021/09/08 08:15:31;;;;;;;14.50;6.50;;;;;;;31.42;53.02;99839.61;111955;1207;99010;-81
2021/09/08 08:18:01;;;;;;;13.60;6.20;;;;;;;31.69;52.30;99836.48;111973;1208;99529;-81
2021/09/08 08:20:32;;;;;;;12.80;6.10;;;;;;;32.09;52.12;99840.79;112017;1200;99649;-82
2021/09/08 08:23:00;;;;;;;14.50;6.90;;;;;;;32.50;51.99;99835.51;111977;1206;113095;-82
2021/09/08 08:25:28;;;;;;;15.20;7.60;;;;;;;32.65;51.44;99843.25;111991;1209;99030;-82
2021/09/08 08:28:09;;;;;;;17.70;7.00;;;;;;;32.75;50.85;99843.48;111994;1201;98222;-81
2021/09/08 08:30:37;;;;;;;25.20;15.20;;;;;;;32.89;50.27;99843.77;112037;1207;99019;-80
2021/09/08 08:33:05;;;;;;;17.40;8.00;;;;;;;33.16;50.24;99848.61;111970;1207;96395;-81
2021/09/08 08:35:35;;;;;;;14.40;6.80;;;;;;;33.27;50.18;99851.61;111908;1201;103865;-80
2021/09/08 08:38:03;;;;;;;14.70;6.70;;;;;;;33.41;49.66;99852.94;111963;1200;99525;-80
2021/09/08 08:40:33;;;;;;;19.30;7.10;;;;;;;33.65;49.38;99851.39;111900;1207;98951;-80
2021/09/08 08:43:03;;;;;;;12.80;6.60;;;;;;;33.98;48.56;99846.95;111876;1208;99010;-80
2021/09/08 08:45:34;;;;;;;13.40;6.40;;;;;;;34.18;48.49;99848.54;111960;1200;100102;-80
2021/09/08 08:48:04;;;;;;;13.80;6.60;;;;;;;34.25;47.97;99846.61;111984;1207;103999;-80
2021/09/08 08:50:33;;;;;;;15.50;6.80;;;;;;;34.37;47.17;99847.25;111949;1207;99445;-80
2021/09/08 08:53:01;;;;;;;19.90;7.20;;;;;;;34.43;47.10;99846.52;111955;1207;98883;-81
2021/09/08 08:55:29;;;;;;;12.30;6.60;;;;;;;34.41;46.72;99846.22;111885;1207;99030;-81
2021/09/08 08:57:59;;;;;;;16.00;7.10;;;;;;;34.47;46.47;99848.86;111849;1201;98943;-80
2021/09/08 09:00:27;;;;;;;14.90;6.90;;;;;;;34.56;46.03;99845.88;111876;1207;105063;-80
2021/09/08 09:02:55;;;;;;;15.50;6.70;;;;;;;35.08;45.86;99843.88;111934;1209;99430;-81
2021/09/08 09:05:29;;;;;;;15.10;7.00;;;;;;;35.41;45.32;99841.75;111902;1208;99859;-80
2021/09/08 09:07:58;;;;;;;12.90;6.90;;;;;;;35.26;44.66;99843.06;111962;1207;98901;-81
2021/09/08 09:10:27;;;;;;;13.40;6.90;;;;;;;35.00;44.41;99840.73;111992;1203;96453;-80
2021/09/08 09:12:55;;;;;;;16.50;7.20;;;;;;;34.86;44.02;99842.95;111958;1207;105401;-80
2021/09/08 09:15:24;;;;;;;17.20;6.90;;;;;;;34.94;43.75;99838.92;111980;1207;99524;-80
2021/09/08 09:17:54;;;;;;;15.20;7.00;;;;;;;35.22;43.61;99838.31;111845;1200;99014;-80
2021/09/08 09:20:33;;;;;;;16.50;7.50;;;;;;;35.27;43.26;99839.27;111882;1200;98940;-80
2021/09/08 09:23:03;;;;;;;21.80;9.00;;;;;;;35.22;42.45;99830.91;111822;1207;97142;-80
2021/09/08 09:25:38;;;;;;;17.60;9.30;;;;;;;35.25;42.50;99835.14;112036;1201;104130;-80
2021/09/08 09:28:08;;;;;;;23.00;11.70;;;;;;;35.25;42.24;99834.09;112029;1203;99457;-80
2021/09/08 09:30:39;;;;;;;22.00;11.60;;;;;;;35.04;41.49;99834.36;111925;1202;99048;-80
2021/09/08 09:33:30;;;;;;;19.30;9.90;;;;;;;35.19;41.68;99831.58;111892;1207;98967;-80
2021/09/08 09:36:14;;;;;;;25.10;11.30;;;;;;;35.53;41.36;99830.35;111958;1203;98925;-80
2021/09/08 09:38:45;;;;;;;19.60;10.00;;;;;;;35.71;41.07;99831.06;111981;1207;103754;-79
2021/09/08 09:41:17;;;;;;;17.00;9.20;;;;;;;35.69;40.73;99829.10;112016;1207;96818;-81
2021/09/08 09:43:45;;;;;;;17.20;9.00;;;;;;;35.45;40.23;99826.05;111930;1207;98998;-82
2021/09/08 09:46:13;;;;;;;21.00;9.30;;;;;;;35.04;40.00;99826.28;111916;1205;99101;-82
2021/09/08 09:48:41;;;;;;;18.60;9.10;;;;;;;34.76;40.15;99824.90;111986;1202;99031;-82
2021/09/08 09:51:13;;;;;;;20.60;8.90;;;;;;;34.47;40.08;99823.13;111770;1203;104761;-82
2021/09/08 09:53:41;;;;;;;18.80;8.80;;;;;;;33.90;40.02;99825.71;112200;1201;98942;-82
2021/09/08 09:56:09;;;;;;;17.50;8.30;;;;;;;33.42;39.75;99823.84;112166;1207;99402;-82
2021/09/08 09:58:37;;;;;;;19.10;8.70;;;;;;;33.00;39.76;99819.48;112009;1207;98975;-81
2021/09/08 10:01:05;;;;;;;18.60;8.40;;;;;;;32.60;39.34;99817.23;112022;1207;96305;-83
2021/09/08 10:03:34;;;;;;;16.40;9.10;;;;;;;32.27;38.93;99814.98;111957;1207;103750;-82
2021/09/08 10:06:03;;;;;;;17.10;8.70;;;;;;;31.99;38.88;99808.34;112010;1207;99444;-83
2021/09/08 10:08:37;;;;;;;24.40;8.90;;;;;;;31.70;38.80;99805.37;111993;1207;98551;-83
2021/09/08 10:11:08;;;;;;;18.50;8.50;;;;;;;31.50;38.72;99804.41;112001;1201;99023;-84
2021/09/08 10:13:50;;;;;;;18.50;9.80;;;;;;;31.26;38.08;99802.50;112057;1203;98995;-83
2021/09/08 10:16:21;;;;;;;18.00;8.70;;;;;;;30.48;37.65;99800.92;111992;1208;112603;-83
2021/09/08 10:18:51;;;;;;;16.70;8.60;;;;;;;29.80;37.42;99801.00;112005;1207;99064;-83
2021/09/08 10:21:19;;;;;;;18.80;8.70;;;;;;;29.24;37.54;99799.14;111999;1209;106939;-85
2021/09/08 10:24:04;;;;;;;18.20;8.70;;;;;;;28.85;37.37;99801.48;111966;1201;99078;-84
2021/09/08 10:26:34;;;;;;;19.60;8.30;;;;;;;28.67;37.70;99797.42;112024;1200;98987;-83
2021/09/08 10:29:07;;;;;;;16.00;7.60;;;;;;;28.61;37.62;99797.55;112026;1208;113202;-84
2021/09/08 10:31:42;;;;;;;18.20;8.60;;;;;;;28.59;37.72;99795.96;112023;1207;99055;-85
2021/09/08 10:34:13;;;;;;;17.40;8.80;;;;;;;28.49;37.44;99795.46;111957;1208;107417;-84
2021/09/08 10:36:43;;;;;;;18.80;8.70;;;;;;;28.30;37.41;99791.09;111960;1205;99023;-83
2021/09/08 10:39:22;;;;;;;21.20;9.70;;;;;;;28.14;37.53;99793.23;111949;1206;96506;-83
2021/09/08 10:41:52;;;;;;;19.30;9.80;;;;;;;28.13;37.74;99793.48;111995;1207;112511;-83
2021/09/08 10:44:43;;;;;;;20.50;10.60;;;;;;;28.13;37.47;99796.93;112002;1207;99241;-82
2021/09/08 10:47:12;;;;;;;19.50;9.90;;;;;;;28.09;37.50;99794.15;111984;1208;107361;-84
2021/09/08 10:49:42;;;;;;;22.00;9.90;;;;;;;28.05;37.46;99789.38;112017;1209;98939;-82
2021/09/08 10:52:35;;;;;;;22.20;10.10;;;;;;;28.02;37.35;99789.00;112032;1207;99044;-82
2021/09/08 10:55:17;;;;;;;20.00;10.40;;;;;;;27.97;37.27;99782.21;112116;1199;112381;-82
2021/09/08 10:57:46;;;;;;;18.00;8.90;;;;;;;27.72;36.92;99783.02;112120;1199;96379;-82
2021/09/08 11:00:20;;;;;;;16.30;8.50;;;;;;;27.30;36.67;99783.45;111994;1208;107418;-83
2021/09/08 11:02:48;;;;;;;19.70;8.80;;;;;;;27.08;37.05;99779.48;112054;1205;99065;-82
2021/09/08 11:05:16;;;;;;;18.70;8.30;;;;;;;27.04;37.22;99777.04;112060;1203;99069;-81
2021/09/08 11:07:47;;;;;;;16.30;7.60;;;;;;;27.09;37.32;99777.65;112124;1203;111971;-82
2021/09/08 11:10:44;;;;;;;16.50;8.50;;;;;;;27.10;37.27;99776.77;112078;1208;97765;-83
2021/09/08 11:13:25;;;;;;;18.70;7.80;;;;;;;27.14;37.37;99776.06;112055;1208;107455;-83
2021/09/08 11:15:54;;;;;;;20.10;8.70;;;;;;;27.21;37.27;99775.73;111981;1207;97755;-85
2021/09/08 11:18:33;;;;;;;19.80;9.70;;;;;;;27.21;37.15;99775.77;112048;1205;99218;-83
2021/09/08 11:21:04;;;;;;;16.20;7.60;;;;;;;27.16;37.21;99772.14;111970;1201;112527;-84
2021/09/08 11:23:32;;;;;;;17.70;7.80;;;;;;;27.12;37.15;99772.02;112185;1203;97676;-84
2021/09/08 11:26:09;;;;;;;16.10;7.40;;;;;;;27.09;37.35;99769.67;112117;1201;107535;-85
2021/09/08 11:28:39;;;;;;;16.30;7.90;;;;;;;27.03;37.16;99766.32;112029;1202;99058;-86